sensor_id;sensor_type;location;lat;lon;timestamp;temperature;humidity
12981;DHT22;6555;50.468;8.480;2023-03-01T00:02:41;2.30;46.40
12981;DHT22;6555;50.468;8.480;2023-03-01T00:07:59;2.30;46.60
12981;DHT22;6555;50.468;8.480;2023-03-01T00:13:29;2.30;46.60
12981;DHT22;6555;50.468;8.480;2023-03-01T00:18:46;2.30;46.60
12981;DHT22;6555;50.468;8.480;2023-03-01T00:24:17;2.20;46.40
12981;DHT22;6555;50.468;8.480;2023-03-01T00:29:34;2.20;46.50
12981;DHT22;6555;50.468;8.480;2023-03-01T00:35:04;2.10;46.50
12981;DHT22;6555;50.468;8.480;2023-03-01T00:40:21;2.10;46.50
12981;DHT22;6555;50.468;8.480;2023-03-01T00:45:52;2.10;46.50
12981;DHT22;6555;50.468;8.480;2023-03-01T00:51:09;2.10;46.60
12981;DHT22;6555;50.468;8.480;2023-03-01T00:56:41;2.00;46.40
12981;DHT22;6555;50.468;8.480;2023-03-01T01:01:58;2.00;46.50
12981;DHT22;6555;50.468;8.480;2023-03-01T01:07:28;2.00;46.60
12981;DHT22;6555;50.468;8.480;2023-03-01T01:12:46;1.90;46.60
12981;DHT22;6555;50.468;8.480;2023-03-01T01:18:16;1.90;46.60
12981;DHT22;6555;50.468;8.480;2023-03-01T01:23:32;1.80;46.60
12981;DHT22;6555;50.468;8.480;2023-03-01T01:29:05;1.80;46.50
12981;DHT22;6555;50.468;8.480;2023-03-01T01:34:22;1.70;46.60
12981;DHT22;6555;50.468;8.480;2023-03-01T01:39:52;1.70;46.50
12981;DHT22;6555;50.468;8.480;2023-03-01T01:45:28;1.70;46.60
12981;DHT22;6555;50.468;8.480;2023-03-01T01:51:00;1.70;46.90
12981;DHT22;6555;50.468;8.480;2023-03-01T01:56:17;1.60;46.60
12981;DHT22;6555;50.468;8.480;2023-03-01T02:01:50;1.60;46.40
12981;DHT22;6555;50.468;8.480;2023-03-01T02:07:10;1.50;46.60
12981;DHT22;6555;50.468;8.480;2023-03-01T02:12:44;1.40;46.60
12981;DHT22;6555;50.468;8.480;2023-03-01T02:18:04;1.40;46.70
12981;DHT22;6555;50.468;8.480;2023-03-01T02:23:36;1.30;46.70
12981;DHT22;6555;50.468;8.480;2023-03-01T02:28:54;1.30;46.80
12981;DHT22;6555;50.468;8.480;2023-03-01T02:34:25;1.30;46.70
12981;DHT22;6555;50.468;8.480;2023-03-01T02:39:45;1.30;46.80
12981;DHT22;6555;50.468;8.480;2023-03-01T02:45:18;1.20;46.70
12981;DHT22;6555;50.468;8.480;2023-03-01T02:50:46;1.20;47.00
12981;DHT22;6555;50.468;8.480;2023-03-01T02:56:22;1.20;47.00
12981;DHT22;6555;50.468;8.480;2023-03-01T03:01:40;1.20;47.00
12981;DHT22;6555;50.468;8.480;2023-03-01T03:07:10;1.20;46.90
12981;DHT22;6555;50.468;8.480;2023-03-01T03:12:27;1.20;47.00
12981;DHT22;6555;50.468;8.480;2023-03-01T03:17:58;1.20;47.00
12981;DHT22;6555;50.468;8.480;2023-03-01T03:23:15;1.20;47.10
12981;DHT22;6555;50.468;8.480;2023-03-01T03:28:45;1.20;47.10
12981;DHT22;6555;50.468;8.480;2023-03-01T03:34:03;1.10;47.10
12981;DHT22;6555;50.468;8.480;2023-03-01T03:39:47;1.20;47.10
12981;DHT22;6555;50.468;8.480;2023-03-01T03:45:17;1.10;47.20
12981;DHT22;6555;50.468;8.480;2023-03-01T03:50:36;1.10;47.10
12981;DHT22;6555;50.468;8.480;2023-03-01T03:56:06;1.10;47.10
12981;DHT22;6555;50.468;8.480;2023-03-01T04:01:23;1.10;47.20
12981;DHT22;6555;50.468;8.480;2023-03-01T04:06:54;1.00;47.10
12981;DHT22;6555;50.468;8.480;2023-03-01T04:12:11;1.10;47.40
12981;DHT22;6555;50.468;8.480;2023-03-01T04:17:46;1.10;47.60
12981;DHT22;6555;50.468;8.480;2023-03-01T04:23:06;1.10;47.40
12981;DHT22;6555;50.468;8.480;2023-03-01T04:28:39;1.10;47.50
12981;DHT22;6555;50.468;8.480;2023-03-01T04:33:57;1.10;47.50
12981;DHT22;6555;50.468;8.480;2023-03-01T04:39:29;1.10;47.30
12981;DHT22;6555;50.468;8.480;2023-03-01T04:45:08;1.10;47.40
12981;DHT22;6555;50.468;8.480;2023-03-01T04:50:27;1.10;48.10
12981;DHT22;6555;50.468;8.480;2023-03-01T04:55:59;1.10;47.40
12981;DHT22;6555;50.468;8.480;2023-03-01T05:01:17;1.10;47.50
12981;DHT22;6555;50.468;8.480;2023-03-01T05:06:47;1.10;47.50
12981;DHT22;6555;50.468;8.480;2023-03-01T05:12:05;1.10;47.50
12981;DHT22;6555;50.468;8.480;2023-03-01T05:17:35;1.10;47.50
12981;DHT22;6555;50.468;8.480;2023-03-01T05:22:53;1.10;47.50
12981;DHT22;6555;50.468;8.480;2023-03-01T05:28:28;1.10;47.40
12981;DHT22;6555;50.468;8.480;2023-03-01T05:33:44;1.10;47.40
12981;DHT22;6555;50.468;8.480;2023-03-01T05:39:14;1.00;47.20
12981;DHT22;6555;50.468;8.480;2023-03-01T05:44:46;0.90;47.40
12981;DHT22;6555;50.468;8.480;2023-03-01T05:50:02;0.90;47.50
12981;DHT22;6555;50.468;8.480;2023-03-01T05:55:33;0.90;47.50
12981;DHT22;6555;50.468;8.480;2023-03-01T06:00:51;0.90;47.70
12981;DHT22;6555;50.468;8.480;2023-03-01T06:06:21;0.90;47.60
12981;DHT22;6555;50.468;8.480;2023-03-01T06:11:38;0.90;47.70
12981;DHT22;6555;50.468;8.480;2023-03-01T06:17:10;0.90;47.60
12981;DHT22;6555;50.468;8.480;2023-03-01T06:22:26;0.80;47.60
12981;DHT22;6555;50.468;8.480;2023-03-01T06:27:56;0.80;47.60
12981;DHT22;6555;50.468;8.480;2023-03-01T06:33:14;0.80;47.70
12981;DHT22;6555;50.468;8.480;2023-03-01T06:38:45;0.80;47.70
12981;DHT22;6555;50.468;8.480;2023-03-01T06:44:15;0.80;47.80
12981;DHT22;6555;50.468;8.480;2023-03-01T06:49:33;0.80;47.90
12981;DHT22;6555;50.468;8.480;2023-03-01T06:55:03;0.80;47.90
12981;DHT22;6555;50.468;8.480;2023-03-01T07:00:20;0.80;48.20
12981;DHT22;6555;50.468;8.480;2023-03-01T07:05:52;0.90;48.30
12981;DHT22;6555;50.468;8.480;2023-03-01T07:11:08;0.90;48.50
12981;DHT22;6555;50.468;8.480;2023-03-01T07:16:38;1.10;48.50
12981;DHT22;6555;50.468;8.480;2023-03-01T07:21:56;1.20;48.80
12981;DHT22;6555;50.468;8.480;2023-03-01T07:27:26;1.40;48.80
12981;DHT22;6555;50.468;8.480;2023-03-01T07:32:42;1.50;49.00
12981;DHT22;6555;50.468;8.480;2023-03-01T07:38:14;1.70;49.00
12981;DHT22;6555;50.468;8.480;2023-03-01T07:43:31;1.80;49.20
12981;DHT22;6555;50.468;8.480;2023-03-01T07:49:01;1.90;49.20
12981;DHT22;6555;50.468;8.480;2023-03-01T07:54:20;2.10;49.20
12981;DHT22;6555;50.468;8.480;2023-03-01T07:59:50;2.20;49.00
12981;DHT22;6555;50.468;8.480;2023-03-01T08:05:12;2.40;49.20
12981;DHT22;6555;50.468;8.480;2023-03-01T08:10:45;2.50;49.40
12981;DHT22;6555;50.468;8.480;2023-03-01T08:16:02;2.60;49.20
12981;DHT22;6555;50.468;8.480;2023-03-01T08:21:34;2.70;49.00
12981;DHT22;6555;50.468;8.480;2023-03-01T08:26:52;2.90;49.20
12981;DHT22;6555;50.468;8.480;2023-03-01T08:32:24;2.90;49.10
12981;DHT22;6555;50.468;8.480;2023-03-01T08:37:47;3.10;49.30
12981;DHT22;6555;50.468;8.480;2023-03-01T08:43:19;3.20;49.10
12981;DHT22;6555;50.468;8.480;2023-03-01T08:48:35;3.30;49.30
12981;DHT22;6555;50.468;8.480;2023-03-01T08:54:06;3.50;49.40
12981;DHT22;6555;50.468;8.480;2023-03-01T08:59:26;3.70;49.20
12981;DHT22;6555;50.468;8.480;2023-03-01T09:04:59;3.80;49.20
12981;DHT22;6555;50.468;8.480;2023-03-01T09:10:16;3.90;49.20
12981;DHT22;6555;50.468;8.480;2023-03-01T09:15:47;4.00;49.10
12981;DHT22;6555;50.468;8.480;2023-03-01T09:21:03;4.20;49.00
12981;DHT22;6555;50.468;8.480;2023-03-01T09:26:53;4.30;48.90
12981;DHT22;6555;50.468;8.480;2023-03-01T09:32:11;4.40;48.80
12981;DHT22;6555;50.468;8.480;2023-03-01T09:37:40;4.50;48.80
12981;DHT22;6555;50.468;8.480;2023-03-01T09:43:15;4.60;48.80
12981;DHT22;6555;50.468;8.480;2023-03-01T09:48:41;4.80;49.00
12981;DHT22;6555;50.468;8.480;2023-03-01T09:54:11;4.90;48.90
12981;DHT22;6555;50.468;8.480;2023-03-01T09:59:33;5.00;48.60
12981;DHT22;6555;50.468;8.480;2023-03-01T10:05:26;5.10;48.50
12981;DHT22;6555;50.468;8.480;2023-03-01T10:10:46;5.20;48.50
12981;DHT22;6555;50.468;8.480;2023-03-01T10:16:19;5.30;48.50
12981;DHT22;6555;50.468;8.480;2023-03-01T10:21:42;5.40;48.60
12981;DHT22;6555;50.468;8.480;2023-03-01T10:27:19;5.50;48.70
12981;DHT22;6555;50.468;8.480;2023-03-01T10:32:36;5.60;48.40
12981;DHT22;6555;50.468;8.480;2023-03-01T10:38:09;5.80;48.60
12981;DHT22;6555;50.468;8.480;2023-03-01T10:43:32;5.90;48.40
12981;DHT22;6555;50.468;8.480;2023-03-01T10:49:15;6.00;48.40
12981;DHT22;6555;50.468;8.480;2023-03-01T10:54:33;6.20;48.50
12981;DHT22;6555;50.468;8.480;2023-03-01T11:00:24;6.30;48.60
12981;DHT22;6555;50.468;8.480;2023-03-01T11:05:56;6.50;48.30
12981;DHT22;6555;50.468;8.480;2023-03-01T11:11:32;6.60;48.10
12981;DHT22;6555;50.468;8.480;2023-03-01T11:16:58;6.70;48.10
12981;DHT22;6555;50.468;8.480;2023-03-01T11:22:28;6.80;48.00
12981;DHT22;6555;50.468;8.480;2023-03-01T11:27:48;6.90;48.10
12981;DHT22;6555;50.468;8.480;2023-03-01T11:33:23;7.00;48.10
12981;DHT22;6555;50.468;8.480;2023-03-01T11:38:47;7.20;48.00
12981;DHT22;6555;50.468;8.480;2023-03-01T11:44:22;7.30;48.10
12981;DHT22;6555;50.468;8.480;2023-03-01T11:55:54;7.50;48.00
12981;DHT22;6555;50.468;8.480;2023-03-01T12:01:29;7.70;47.90
12981;DHT22;6555;50.468;8.480;2023-03-01T12:07:06;7.80;47.50
12981;DHT22;6555;50.468;8.480;2023-03-01T12:12:32;7.90;47.80
12981;DHT22;6555;50.468;8.480;2023-03-01T12:18:26;8.00;47.60
12981;DHT22;6555;50.468;8.480;2023-03-01T12:29:46;8.10;47.20
12981;DHT22;6555;50.468;8.480;2023-03-01T12:35:49;8.20;47.30
12981;DHT22;6555;50.468;8.480;2023-03-01T12:41:33;8.30;46.80
12981;DHT22;6555;50.468;8.480;2023-03-01T12:47:05;8.30;46.40
12981;DHT22;6555;50.468;8.480;2023-03-01T12:52:42;8.40;46.90
12981;DHT22;6555;50.468;8.480;2023-03-01T12:58:05;8.50;46.70
12981;DHT22;6555;50.468;8.480;2023-03-01T13:03:48;8.60;46.90
12981;DHT22;6555;50.468;8.480;2023-03-01T13:09:17;8.70;46.90
12981;DHT22;6555;50.468;8.480;2023-03-01T13:14:53;8.80;46.30
12981;DHT22;6555;50.468;8.480;2023-03-01T13:20:15;8.90;46.50
12981;DHT22;6555;50.468;8.480;2023-03-01T13:26:15;9.00;46.80
12981;DHT22;6555;50.468;8.480;2023-03-01T13:31:59;9.10;46.10
12981;DHT22;6555;50.468;8.480;2023-03-01T13:37:34;9.20;46.00
12981;DHT22;6555;50.468;8.480;2023-03-01T13:42:52;9.30;45.90
12981;DHT22;6555;50.468;8.480;2023-03-01T13:48:24;9.30;46.00
12981;DHT22;6555;50.468;8.480;2023-03-01T13:53:44;9.40;45.70
12981;DHT22;6555;50.468;8.480;2023-03-01T13:59:18;9.40;45.70
12981;DHT22;6555;50.468;8.480;2023-03-01T14:04:34;9.40;45.70
12981;DHT22;6555;50.468;8.480;2023-03-01T14:10:05;9.50;45.80
12981;DHT22;6555;50.468;8.480;2023-03-01T14:15:33;9.50;45.50
12981;DHT22;6555;50.468;8.480;2023-03-01T14:21:07;9.60;45.20
12981;DHT22;6555;50.468;8.480;2023-03-01T14:26:24;9.60;45.20
12981;DHT22;6555;50.468;8.480;2023-03-01T14:31:55;9.60;45.50
12981;DHT22;6555;50.468;8.480;2023-03-01T14:37:20;9.70;45.50
12981;DHT22;6555;50.468;8.480;2023-03-01T14:42:51;9.70;45.10
12981;DHT22;6555;50.468;8.480;2023-03-01T14:48:11;9.70;44.80
12981;DHT22;6555;50.468;8.480;2023-03-01T14:53:42;9.70;45.00
12981;DHT22;6555;50.468;8.480;2023-03-01T14:59:13;9.70;44.30
12981;DHT22;6555;50.468;8.480;2023-03-01T15:04:30;9.70;44.40
12981;DHT22;6555;50.468;8.480;2023-03-01T15:10:02;9.70;44.60
12981;DHT22;6555;50.468;8.480;2023-03-01T15:15:21;9.60;44.00
12981;DHT22;6555;50.468;8.480;2023-03-01T15:20:53;9.60;44.50
12981;DHT22;6555;50.468;8.480;2023-03-01T15:26:23;9.60;44.00
12981;DHT22;6555;50.468;8.480;2023-03-01T15:31:56;9.50;44.50
12981;DHT22;6555;50.468;8.480;2023-03-01T15:37:43;9.40;44.00
12981;DHT22;6555;50.468;8.480;2023-03-01T15:43:40;9.30;43.20
12981;DHT22;6555;50.468;8.480;2023-03-01T15:48:58;9.20;43.40
12981;DHT22;6555;50.468;8.480;2023-03-01T15:54:30;9.10;43.90
12981;DHT22;6555;50.468;8.480;2023-03-01T15:59:47;9.10;43.90
12981;DHT22;6555;50.468;8.480;2023-03-01T16:05:19;9.00;44.10
12981;DHT22;6555;50.468;8.480;2023-03-01T16:10:39;9.00;44.00
12981;DHT22;6555;50.468;8.480;2023-03-01T16:16:13;8.90;44.10
12981;DHT22;6555;50.468;8.480;2023-03-01T16:21:31;8.90;43.90
12981;DHT22;6555;50.468;8.480;2023-03-01T16:26:55;8.80;44.30
12981;DHT22;6555;50.468;8.480;2023-03-01T16:32:19;8.80;44.30
12981;DHT22;6555;50.468;8.480;2023-03-01T16:37:35;8.70;44.00
12981;DHT22;6555;50.468;8.480;2023-03-01T16:43:16;8.70;44.30
12981;DHT22;6555;50.468;8.480;2023-03-01T16:48:33;8.60;43.10
12981;DHT22;6555;50.468;8.480;2023-03-01T16:54:03;8.60;44.00
12981;DHT22;6555;50.468;8.480;2023-03-01T16:59:21;8.50;43.60
12981;DHT22;6555;50.468;8.480;2023-03-01T17:04:52;8.50;44.80
12981;DHT22;6555;50.468;8.480;2023-03-01T17:10:10;8.30;43.60
12981;DHT22;6555;50.468;8.480;2023-03-01T17:15:42;8.20;43.90
12981;DHT22;6555;50.468;8.480;2023-03-01T17:20:59;8.00;43.60
12981;DHT22;6555;50.468;8.480;2023-03-01T17:26:30;7.80;43.90
12981;DHT22;6555;50.468;8.480;2023-03-01T17:31:47;7.60;43.70
12981;DHT22;6555;50.468;8.480;2023-03-01T17:37:18;7.40;43.80
12981;DHT22;6555;50.468;8.480;2023-03-01T17:42:35;7.30;43.90
12981;DHT22;6555;50.468;8.480;2023-03-01T17:48:06;7.20;44.10
12981;DHT22;6555;50.468;8.480;2023-03-01T17:53:23;7.10;44.00
12981;DHT22;6555;50.468;8.480;2023-03-01T17:58:53;7.00;44.20
12981;DHT22;6555;50.468;8.480;2023-03-01T18:04:11;6.90;44.00
12981;DHT22;6555;50.468;8.480;2023-03-01T18:09:42;6.90;44.10
12981;DHT22;6555;50.468;8.480;2023-03-01T18:14:58;6.80;43.90
12981;DHT22;6555;50.468;8.480;2023-03-01T18:20:29;6.70;44.10
12981;DHT22;6555;50.468;8.480;2023-03-01T18:25:47;6.60;43.90
12981;DHT22;6555;50.468;8.480;2023-03-01T18:31:18;6.60;44.00
12981;DHT22;6555;50.468;8.480;2023-03-01T18:36:37;6.50;43.80
12981;DHT22;6555;50.468;8.480;2023-03-01T18:42:24;6.50;44.20
12981;DHT22;6555;50.468;8.480;2023-03-01T18:47:40;6.40;43.90
12981;DHT22;6555;50.468;8.480;2023-03-01T18:53:12;6.40;44.10
12981;DHT22;6555;50.468;8.480;2023-03-01T18:58:29;6.30;44.70
12981;DHT22;6555;50.468;8.480;2023-03-01T19:03:59;6.20;44.10
12981;DHT22;6555;50.468;8.480;2023-03-01T19:09:17;6.10;44.00
12981;DHT22;6555;50.468;8.480;2023-03-01T19:14:48;6.00;44.00
12981;DHT22;6555;50.468;8.480;2023-03-01T19:20:06;5.90;44.10
12981;DHT22;6555;50.468;8.480;2023-03-01T19:25:38;5.80;44.10
12981;DHT22;6555;50.468;8.480;2023-03-01T19:30:58;5.70;44.20
12981;DHT22;6555;50.468;8.480;2023-03-01T19:36:29;5.60;44.00
12981;DHT22;6555;50.468;8.480;2023-03-01T19:41:48;5.60;44.10
12981;DHT22;6555;50.468;8.480;2023-03-01T19:47:19;5.50;44.20
12981;DHT22;6555;50.468;8.480;2023-03-01T19:52:35;5.50;45.00
12981;DHT22;6555;50.468;8.480;2023-03-01T19:58:07;5.50;44.30
12981;DHT22;6555;50.468;8.480;2023-03-01T20:03:32;5.50;44.50
12981;DHT22;6555;50.468;8.480;2023-03-01T20:09:04;5.40;44.30
12981;DHT22;6555;50.468;8.480;2023-03-01T20:14:30;5.40;44.40
12981;DHT22;6555;50.468;8.480;2023-03-01T20:20:00;5.30;44.40
12981;DHT22;6555;50.468;8.480;2023-03-01T20:25:16;5.30;44.40
12981;DHT22;6555;50.468;8.480;2023-03-01T20:30:47;5.20;44.50
12981;DHT22;6555;50.468;8.480;2023-03-01T20:36:04;5.10;45.30
12981;DHT22;6555;50.468;8.480;2023-03-01T20:41:34;5.20;44.70
12981;DHT22;6555;50.468;8.480;2023-03-01T20:46:51;5.20;44.70
12981;DHT22;6555;50.468;8.480;2023-03-01T20:52:21;5.10;44.70
12981;DHT22;6555;50.468;8.480;2023-03-01T20:57:49;5.10;44.70
12981;DHT22;6555;50.468;8.480;2023-03-01T21:03:20;5.10;44.70
12981;DHT22;6555;50.468;8.480;2023-03-01T21:08:37;5.00;44.50
12981;DHT22;6555;50.468;8.480;2023-03-01T21:14:08;5.00;44.70
12981;DHT22;6555;50.468;8.480;2023-03-01T21:19:27;4.90;44.60
12981;DHT22;6555;50.468;8.480;2023-03-01T21:24:57;4.90;44.60
12981;DHT22;6555;50.468;8.480;2023-03-01T21:30:14;4.70;44.50
12981;DHT22;6555;50.468;8.480;2023-03-01T21:35:45;4.60;44.40
12981;DHT22;6555;50.468;8.480;2023-03-01T21:41:10;4.50;44.60
12981;DHT22;6555;50.468;8.480;2023-03-01T21:54:01;4.30;44.70
12981;DHT22;6555;50.468;8.480;2023-03-01T21:59:19;4.20;44.80
12981;DHT22;6555;50.468;8.480;2023-03-01T22:04:51;4.20;44.90
12981;DHT22;6555;50.468;8.480;2023-03-01T22:10:12;4.10;45.10
12981;DHT22;6555;50.468;8.480;2023-03-01T22:15:48;4.10;45.10
12981;DHT22;6555;50.468;8.480;2023-03-01T22:21:05;4.10;45.20
12981;DHT22;6555;50.468;8.480;2023-03-01T22:26:38;4.10;45.20
12981;DHT22;6555;50.468;8.480;2023-03-01T22:31:56;4.00;45.10
12981;DHT22;6555;50.468;8.480;2023-03-01T22:37:27;4.00;45.00
12981;DHT22;6555;50.468;8.480;2023-03-01T22:42:44;4.00;45.10
12981;DHT22;6555;50.468;8.480;2023-03-01T22:48:15;3.90;45.00
12981;DHT22;6555;50.468;8.480;2023-03-01T22:53:31;3.90;45.10
12981;DHT22;6555;50.468;8.480;2023-03-01T22:59:04;3.80;45.00
12981;DHT22;6555;50.468;8.480;2023-03-01T23:04:22;3.80;45.10
12981;DHT22;6555;50.468;8.480;2023-03-01T23:09:53;3.70;45.10
12981;DHT22;6555;50.468;8.480;2023-03-01T23:15:11;3.60;45.20
12981;DHT22;6555;50.468;8.480;2023-03-01T23:20:42;3.50;45.30
12981;DHT22;6555;50.468;8.480;2023-03-01T23:25:58;3.50;45.40
12981;DHT22;6555;50.468;8.480;2023-03-01T23:31:29;3.50;45.40
12981;DHT22;6555;50.468;8.480;2023-03-01T23:36:46;3.40;45.40
12981;DHT22;6555;50.468;8.480;2023-03-01T23:42:16;3.40;45.30
12981;DHT22;6555;50.468;8.480;2023-03-01T23:47:33;3.30;45.40
12981;DHT22;6555;50.468;8.480;2023-03-01T23:53:05;3.30;45.40
12981;DHT22;6555;50.468;8.480;2023-03-01T23:58:22;3.30;45.60
